EZY23KM EGGP-LEBL
Flight info
| Callsign | EZY23KM |
|---|---|
| Flight time | N/A |
| Altitude | 39000 |
| Route | NANTI L8 STAFA P18 TELBA L151 KIDLI UN859 SOPIL DCT BALAN DCT EVPOK DCT NARAK DCT GAI DCT LOMRA DCT ROCAN DCT PUMAL |
| Aircraft | A20N/M-SDE2E3FGHIRWXY/LB1 |
Departure
| Time | N/A |
|---|---|
| Airport | Liverpool John Lennon Airport (EGGP) |
Arrival
| Time | 2026-04-29 16:39 |
|---|---|
| Airport | Josep Tarradellas Barcelona-El Prat Airport (LEBL) |
| Time | Latitude | Longitude | Altitude | Speed | Heading |
|---|---|---|---|---|---|
| 2026-04-29 16:19 | 41.97781 | 1.81785 | 17400 ft | 351 kts | 219° |
| 2026-04-29 16:20 | 41.95906 | 1.79716 | 16973 ft | 348 kts | 219° |
| 2026-04-29 16:20 | 41.94057 | 1.77676 | 16552 ft | 345 kts | 219° |
| 2026-04-29 16:20 | 41.92212 | 1.75643 | 16160 ft | 341 kts | 219° |
| 2026-04-29 16:20 | 41.90385 | 1.73632 | 15734 ft | 338 kts | 219° |
| 2026-04-29 16:21 | 41.88587 | 1.71654 | 15326 ft | 335 kts | 219° |
| 2026-04-29 16:21 | 41.86781 | 1.69670 | 14913 ft | 333 kts | 219° |
| 2026-04-29 16:21 | 41.85003 | 1.67715 | 14503 ft | 330 kts | 219° |
| 2026-04-29 16:21 | 41.83236 | 1.65776 | 14112 ft | 327 kts | 219° |
| 2026-04-29 16:22 | 41.81485 | 1.63856 | 13682 ft | 325 kts | 219° |
| 2026-04-29 16:22 | 41.79744 | 1.61949 | 13270 ft | 323 kts | 219° |
| 2026-04-29 16:22 | 41.78017 | 1.60059 | 12851 ft | 320 kts | 219° |
| 2026-04-29 16:22 | 41.76307 | 1.58187 | 12441 ft | 318 kts | 219° |
| 2026-04-29 16:23 | 41.74591 | 1.56367 | 12027 ft | 315 kts | 213° |
| 2026-04-29 16:23 | 41.72672 | 1.55006 | 11604 ft | 314 kts | 201° |
| 2026-04-29 16:23 | 41.70564 | 1.54215 | 11109 ft | 314 kts | 192° |
| 2026-04-29 16:23 | 41.68436 | 1.53664 | 10625 ft | 314 kts | 191° |
| 2026-04-29 16:24 | 41.66280 | 1.53129 | 10177 ft | 312 kts | 191° |
| 2026-04-29 16:24 | 41.64209 | 1.52614 | 10083 ft | 298 kts | 191° |
| 2026-04-29 16:24 | 41.62220 | 1.52114 | 10026 ft | 284 kts | 191° |
| 2026-04-29 16:24 | 41.60322 | 1.51633 | 9956 ft | 270 kts | 191° |
| 2026-04-29 16:25 | 41.58484 | 1.51167 | 9635 ft | 272 kts | 191° |
| 2026-04-29 16:25 | 41.56618 | 1.50692 | 9249 ft | 273 kts | 191° |
| 2026-04-29 16:25 | 41.54741 | 1.50412 | 8875 ft | 272 kts | 180° |
| 2026-04-29 16:25 | 41.52851 | 1.50594 | 8482 ft | 272 kts | 172° |
| 2026-04-29 16:26 | 41.50975 | 1.50998 | 8072 ft | 271 kts | 171° |
| 2026-04-29 16:26 | 41.49136 | 1.51421 | 7686 ft | 271 kts | 170° |
| 2026-04-29 16:26 | 41.47277 | 1.51849 | 7362 ft | 268 kts | 170° |
| 2026-04-29 16:26 | 41.45452 | 1.52266 | 7044 ft | 265 kts | 170° |
| 2026-04-29 16:27 | 41.43650 | 1.52674 | 6781 ft | 259 kts | 170° |
| 2026-04-29 16:27 | 41.41898 | 1.53068 | 6523 ft | 256 kts | 170° |
| 2026-04-29 16:27 | 41.40148 | 1.53461 | 6290 ft | 257 kts | 170° |
| 2026-04-29 16:27 | 41.38387 | 1.53856 | 6033 ft | 256 kts | 170° |
| 2026-04-29 16:28 | 41.36623 | 1.54243 | 5762 ft | 255 kts | 170° |
| 2026-04-29 16:28 | 41.34867 | 1.54623 | 5446 ft | 253 kts | 170° |
| 2026-04-29 16:28 | 41.33158 | 1.54985 | 5159 ft | 249 kts | 170° |
| 2026-04-29 16:28 | 41.31473 | 1.55337 | 5069 ft | 237 kts | 170° |
| 2026-04-29 16:29 | 41.29890 | 1.55661 | 5066 ft | 229 kts | 170° |
| 2026-04-29 16:29 | 41.28300 | 1.55986 | 4926 ft | 231 kts | 170° |
| 2026-04-29 16:29 | 41.26709 | 1.56307 | 4592 ft | 232 kts | 170° |
| 2026-04-29 16:29 | 41.25107 | 1.56625 | 4246 ft | 233 kts | 170° |
| 2026-04-29 16:30 | 41.23500 | 1.56939 | 3989 ft | 230 kts | 170° |
| 2026-04-29 16:30 | 41.21943 | 1.57234 | 3982 ft | 226 kts | 170° |
| 2026-04-29 16:30 | 41.20451 | 1.57764 | 3967 ft | 224 kts | 147° |
| 2026-04-29 16:30 | 41.19381 | 1.59206 | 3971 ft | 222 kts | 115° |
| 2026-04-29 16:31 | 41.19008 | 1.61176 | 3994 ft | 222 kts | 96° |
| 2026-04-29 16:31 | 41.18920 | 1.63236 | 3982 ft | 222 kts | 93° |
| 2026-04-29 16:31 | 41.18886 | 1.65270 | 3968 ft | 222 kts | 92° |
| 2026-04-29 16:31 | 41.18864 | 1.67317 | 3967 ft | 223 kts | 92° |
| 2026-04-29 16:32 | 41.18845 | 1.69395 | 3830 ft | 226 kts | 92° |
| 2026-04-29 16:32 | 41.18826 | 1.71492 | 3458 ft | 228 kts | 92° |
| 2026-04-29 16:32 | 41.18803 | 1.73579 | 3106 ft | 229 kts | 92° |
| 2026-04-29 16:32 | 41.18886 | 1.75638 | 2974 ft | 219 kts | 80° |
| 2026-04-29 16:33 | 41.19859 | 1.79171 | 2988 ft | 186 kts | 66° |
| 2026-04-29 16:33 | 41.20418 | 1.80676 | 3017 ft | 182 kts | 66° |
| 2026-04-29 16:33 | 41.20972 | 1.82202 | 2986 ft | 181 kts | 67° |
| 2026-04-29 16:34 | 41.21505 | 1.83716 | 2978 ft | 182 kts | 68° |
| 2026-04-29 16:34 | 41.22033 | 1.85249 | 2972 ft | 182 kts | 68° |
| 2026-04-29 16:34 | 41.22551 | 1.86778 | 2978 ft | 182 kts | 68° |
| 2026-04-29 16:34 | 41.23064 | 1.88299 | 2953 ft | 182 kts | 68° |
| 2026-04-29 16:35 | 41.23579 | 1.89827 | 2744 ft | 181 kts | 68° |
| 2026-04-29 16:35 | 41.24097 | 1.91359 | 2504 ft | 180 kts | 68° |
| 2026-04-29 16:35 | 41.24605 | 1.92861 | 2270 ft | 178 kts | 68° |
| 2026-04-29 16:35 | 41.25098 | 1.94314 | 2051 ft | 166 kts | 68° |
| 2026-04-29 16:36 | 41.25558 | 1.95666 | 1821 ft | 153 kts | 68° |
| 2026-04-29 16:36 | 41.25987 | 1.96931 | 1627 ft | 152 kts | 68° |
| 2026-04-29 16:36 | 41.26422 | 1.98210 | 1451 ft | 152 kts | 69° |
| 2026-04-29 16:36 | 41.26850 | 1.99485 | 1275 ft | 147 kts | 69° |
| 2026-04-29 16:37 | 41.27246 | 2.00681 | 1052 ft | 140 kts | 68° |
| 2026-04-29 16:37 | 41.27650 | 2.01833 | 845 ft | 137 kts | 66° |
| 2026-04-29 16:37 | 41.28059 | 2.02989 | 700 ft | 138 kts | 66° |
| 2026-04-29 16:37 | 41.28313 | 2.03758 | 594 ft | 136 kts | 70° |
| 2026-04-29 16:38 | 41.28830 | 2.05262 | 369 ft | 134 kts | 68° |
| 2026-04-29 16:38 | 41.29205 | 2.06384 | 210 ft | 131 kts | 67° |
| 2026-04-29 16:38 | 41.29581 | 2.07475 | 35 ft | 130 kts | 67° |
| 2026-04-29 16:38 | 41.29918 | 2.08454 | 22 ft | 94 kts | 66° |
| 2026-04-29 16:39 | 41.30118 | 2.09044 | 18 ft | 44 kts | 65° |
| 2026-04-29 16:39 | 41.30236 | 2.09389 | 15 ft | 39 kts | 66° |
| 2026-04-29 16:39 | 41.30344 | 2.09695 | 15 ft | 25 kts | 64° |
| 2026-04-29 16:39 | 41.30343 | 2.09807 | 15 ft | 11 kts | 141° |
| 2026-04-29 16:40 | 41.30289 | 2.09841 | 15 ft | 5 kts | 155° |
| 2026-04-29 16:40 | 41.30252 | 2.09864 | 15 ft | 6 kts | 155° |
| 2026-04-29 16:40 | 41.30213 | 2.09866 | 15 ft | 6 kts | 221° |
| 2026-04-29 16:40 | 41.30181 | 2.09782 | 15 ft | 13 kts | 246° |
| 2026-04-29 16:41 | 41.30137 | 2.09651 | 15 ft | 17 kts | 245° |
| 2026-04-29 16:41 | 41.30087 | 2.09501 | 15 ft | 17 kts | 246° |
| 2026-04-29 16:41 | 41.30036 | 2.09353 | 17 ft | 16 kts | 245° |
| 2026-04-29 16:41 | 41.29990 | 2.09219 | 18 ft | 15 kts | 244° |
| 2026-04-29 16:42 | 41.29977 | 2.09183 | 18 ft | 0 kts | 246° |
| 2026-04-29 16:42 | 41.29971 | 2.09163 | 18 ft | 5 kts | 246° |
| 2026-04-29 16:42 | 41.29945 | 2.09086 | 18 ft | 12 kts | 247° |
| 2026-04-29 16:42 | 41.29899 | 2.08953 | 18 ft | 17 kts | 244° |
| 2026-04-29 16:43 | 41.29846 | 2.08807 | 18 ft | 17 kts | 246° |
| 2026-04-29 16:43 | 41.29798 | 2.08656 | 18 ft | 17 kts | 248° |
| 2026-04-29 16:43 | 41.29748 | 2.08512 | 19 ft | 17 kts | 244° |
| 2026-04-29 16:43 | 41.29699 | 2.08369 | 20 ft | 16 kts | 245° |
| 2026-04-29 16:44 | 41.29646 | 2.08240 | 21 ft | 15 kts | 214° |
| 2026-04-29 16:44 | 41.29543 | 2.08275 | 18 ft | 16 kts | 152° |
| 2026-04-29 16:44 | 41.29459 | 2.08320 | 18 ft | 12 kts | 157° |
| 2026-04-29 16:44 | 41.29404 | 2.08359 | 17 ft | 0 kts | 157° |
| 2026-04-29 16:45 | 41.29402 | 2.08360 | 17 ft | 1 kts | 160° |
| 2026-04-29 16:45 | 41.29369 | 2.08322 | 17 ft | 9 kts | 249° |
| 2026-04-29 16:45 | 41.29334 | 2.08216 | 18 ft | 14 kts | 245° |
| 2026-04-29 16:45 | 41.29290 | 2.08089 | 17 ft | 16 kts | 246° |
| 2026-04-29 16:46 | 41.29240 | 2.07941 | 16 ft | 18 kts | 245° |
| 2026-04-29 16:46 | 41.29196 | 2.07815 | 14 ft | 6 kts | 236° |
| 2026-04-29 16:46 | 41.29144 | 2.07830 | 14 ft | 8 kts | 155° |
| 2026-04-29 16:46 | 41.29119 | 2.07845 | 14 ft | 0 kts | 155° |
| 2026-04-29 16:47 | 41.29118 | 2.07846 | 14 ft | 0 kts | 155° |